首页
METAR-TAF:

METAR-TAF

机场 :

特雷維索, 意大利

纬度: 45-39N, 经度: 012-11E, 海拔: 18米

当前天气观测

该预报发布于11分钟前的20:50 UTC
风速1节,风向西转西北
温度 10°C
湿度 62%
气压 1013 hPa
能见度10公里或以上
1500米以下无云,无积雨云

METAR: LIPH 282050Z 30001KT CAVOK 10/03 Q1013

时间: 22:01 (21:01 UTC)

预报

该预报发布于4小时和1分钟前的17:00 UTC
预报有效从28日的 18点(UTC)到 29日的 18点(UTC)
风速5节,风向多变
能見度: 7000
散云层高于4000英尺

TAF: LIPH 281700Z 2818/2918 VRB05KT 7000 SCT040

超过4000个机场的气象观测和天气预报(METAR&TAF报告)。

可查询的气象台以黄色和红色小点在地图上表示。

将鼠标移到小点上方,可查看气象台名称。

然后点击查看天气观测和预报。

如需切换地图:点击带黑十字的绿色按钮放大地图;点击带横线的绿色按钮缩小地图;或者点击绿色箭头查看邻近地区的地图。


METAR-TAF: